createdAt,value
2022-11-21T00:01:16.150Z,98.00
2022-11-21T00:03:43.545Z,98.90
2022-11-21T00:06:10.493Z,98.80
2022-11-21T00:08:37.798Z,99.80
2022-11-21T00:11:04.811Z,99.60
2022-11-21T00:13:32.012Z,99.60
2022-11-21T00:16:04.554Z,99.90
2022-11-21T00:18:34.409Z,99.90
2022-11-21T00:21:06.502Z,99.90
2022-11-21T00:23:35.222Z,99.90
2022-11-21T00:26:06.460Z,99.90
2022-11-21T00:28:34.494Z,99.90
2022-11-21T00:31:02.014Z,99.90
2022-11-21T00:33:29.651Z,99.90
2022-11-21T00:35:56.702Z,99.90
2022-11-21T00:38:26.719Z,99.80
2022-11-21T00:40:53.680Z,99.90
2022-11-21T00:43:20.981Z,99.90
2022-11-21T00:45:47.952Z,99.90
2022-11-21T00:48:15.188Z,99.90
2022-11-21T00:50:42.241Z,99.90
2022-11-21T00:53:09.493Z,99.90
2022-11-21T00:55:37.432Z,99.90
2022-11-21T00:58:04.668Z,99.90
2022-11-21T01:00:32.008Z,99.90
2022-11-21T01:02:59.443Z,99.90
2022-11-21T01:05:26.377Z,99.90
2022-11-21T01:07:53.611Z,99.90
2022-11-21T01:10:20.746Z,99.90
2022-11-21T01:12:48.103Z,99.90
2022-11-21T01:15:15.714Z,99.80
2022-11-21T01:17:43.105Z,99.60
2022-11-21T01:20:10.458Z,99.40
2022-11-21T01:22:38.922Z,99.10
2022-11-21T01:25:06.452Z,99.10
2022-11-21T01:27:33.912Z,98.70
2022-11-21T01:30:00.902Z,99.60
2022-11-21T01:32:28.237Z,99.80
2022-11-21T01:34:55.218Z,99.90
2022-11-21T01:37:22.495Z,99.90
2022-11-21T01:39:49.529Z,99.90
2022-11-21T01:42:17.102Z,99.90
2022-11-21T01:44:53.553Z,99.80
2022-11-21T01:47:22.815Z,99.90
2022-11-21T01:49:52.269Z,99.90
2022-11-21T01:52:29.462Z,99.80
2022-11-21T01:55:01.936Z,99.30
2022-11-21T01:57:35.072Z,98.80
2022-11-21T02:00:08.300Z,98.20
2022-11-21T02:02:40.185Z,99.10
2022-11-21T02:05:11.477Z,99.30
2022-11-21T02:07:43.155Z,99.90
2022-11-21T02:10:11.259Z,99.90
2022-11-21T02:12:44.695Z,99.90
2022-11-21T02:15:12.550Z,99.90
2022-11-21T02:17:39.993Z,99.90
2022-11-21T02:20:10.974Z,99.40
2022-11-21T02:22:50.387Z,99.60
2022-11-21T02:25:27.808Z,99.40
2022-11-21T02:28:01.964Z,99.30
2022-11-21T02:30:31.760Z,99.00
2022-11-21T02:32:59.559Z,99.40
2022-11-21T02:35:26.771Z,99.90
2022-11-21T02:38:16.969Z,99.90
2022-11-21T02:41:14.839Z,99.90
2022-11-21T02:43:44.136Z,99.90
2022-11-21T02:46:11.195Z,99.90
2022-11-21T02:48:39.247Z,99.90
2022-11-21T02:51:06.247Z,99.90
2022-11-21T02:53:33.742Z,99.90
2022-11-21T02:56:00.741Z,99.90
2022-11-21T02:58:28.367Z,99.90
2022-11-21T03:00:55.520Z,99.90
2022-11-21T03:03:22.842Z,99.90
2022-11-21T03:05:49.858Z,99.90
2022-11-21T03:08:17.198Z,99.90
2022-11-21T03:10:44.157Z,99.90
2022-11-21T03:13:11.767Z,99.90
2022-11-21T03:15:38.725Z,99.90
2022-11-21T03:18:06.034Z,99.90
2022-11-21T03:20:34.632Z,99.90
2022-11-21T03:23:02.347Z,99.90
2022-11-21T03:25:29.506Z,99.90
2022-11-21T03:27:56.905Z,99.90
2022-11-21T03:30:25.845Z,99.70
2022-11-21T03:32:56.725Z,98.50
2022-11-21T03:35:24.277Z,97.70
2022-11-21T03:37:51.529Z,97.10
2022-11-21T03:40:18.690Z,97.10
2022-11-21T03:42:45.920Z,97.40
2022-11-21T03:45:12.890Z,97.90
2022-11-21T03:47:40.465Z,97.90
2022-11-21T03:50:07.821Z,97.50
2022-11-21T03:52:35.105Z,97.20
2022-11-21T03:55:02.057Z,97.20
2022-11-21T03:57:29.278Z,97.90
2022-11-21T03:59:56.423Z,97.80
2022-11-21T04:02:23.656Z,97.70
2022-11-21T04:04:50.604Z,98.00
2022-11-21T04:07:17.873Z,97.70
2022-11-21T04:09:44.892Z,97.90
2022-11-21T04:12:12.156Z,98.40
2022-11-21T04:14:39.146Z,98.70
2022-11-21T04:17:06.561Z,98.90
2022-11-21T04:19:33.529Z,98.50
2022-11-21T04:22:00.831Z,98.90
2022-11-21T04:24:28.014Z,99.00
2022-11-21T04:26:55.795Z,99.60
2022-11-21T04:29:22.779Z,99.40
2022-11-21T04:31:49.985Z,99.40
2022-11-21T04:34:17.157Z,99.70
2022-11-21T04:36:44.441Z,99.50
2022-11-21T04:39:11.411Z,99.00
2022-11-21T04:41:38.664Z,98.80
2022-11-21T04:44:05.821Z,98.70
2022-11-21T04:46:33.087Z,98.60
2022-11-21T04:49:00.129Z,98.60
2022-11-21T04:51:27.517Z,99.20
2022-11-21T04:53:54.496Z,99.30
2022-11-21T04:56:21.709Z,99.40
2022-11-21T04:58:53.022Z,98.90
2022-11-21T05:01:20.429Z,97.80
2022-11-21T05:03:47.511Z,97.80
2022-11-21T05:06:15.046Z,98.30
2022-11-21T05:08:42.023Z,98.10
2022-11-21T05:11:27.876Z,97.90
2022-11-21T05:13:55.149Z,99.00
2022-11-21T05:16:22.454Z,98.50
2022-11-21T05:18:49.499Z,97.20
2022-11-21T05:21:16.852Z,96.60
2022-11-21T05:23:43.794Z,97.60
2022-11-21T05:26:11.028Z,98.80
2022-11-21T05:28:38.232Z,99.10
2022-11-21T05:31:05.547Z,99.90
2022-11-21T05:33:32.842Z,99.90
2022-11-21T05:36:00.146Z,99.90
2022-11-21T05:38:27.155Z,99.90
2022-11-21T05:40:54.553Z,99.90
2022-11-21T05:43:40.340Z,98.70
2022-11-21T05:46:07.660Z,97.60
2022-11-21T05:48:36.789Z,96.40
2022-11-21T05:51:04.729Z,95.00
2022-11-21T05:53:31.996Z,94.10
2022-11-21T05:56:05.407Z,93.30
2022-11-21T05:58:32.383Z,93.20
2022-11-21T06:01:00.311Z,92.90
2022-11-21T06:03:32.974Z,93.20
2022-11-21T06:06:14.175Z,93.10
2022-11-21T06:08:44.040Z,93.30
2022-11-21T06:11:13.781Z,93.00
2022-11-21T06:13:40.936Z,92.40
2022-11-21T06:16:13.218Z,91.70
2022-11-21T06:18:46.448Z,91.30
2022-11-21T06:21:17.648Z,91.40
2022-11-21T06:23:45.178Z,91.70
2022-11-21T06:26:14.921Z,91.90
2022-11-21T06:28:43.162Z,92.10
2022-11-21T06:31:16.399Z,91.60
2022-11-21T06:33:44.473Z,91.30
2022-11-21T06:36:14.507Z,90.40
2022-11-21T06:38:44.088Z,90.40
2022-11-21T06:41:16.747Z,87.90
2022-11-21T06:43:44.594Z,87.10
2022-11-21T06:46:12.439Z,83.10
2022-11-21T06:48:40.497Z,80.00
2022-11-21T06:51:12.809Z,78.10
2022-11-21T06:53:39.874Z,73.20
2022-11-21T06:56:07.293Z,70.40
2022-11-21T06:58:34.330Z,71.00
2022-11-21T07:01:06.286Z,70.60
2022-11-21T07:03:34.182Z,70.70
2022-11-21T07:06:01.895Z,71.30
2022-11-21T07:08:30.254Z,69.80
2022-11-21T07:13:49.289Z,69.60
2022-11-21T07:16:16.627Z,68.30
2022-11-21T07:18:45.481Z,70.50
2022-11-21T07:21:12.879Z,64.70
2022-11-21T07:23:42.513Z,62.60
2022-11-21T07:26:10.544Z,61.30
2022-11-21T07:28:38.061Z,59.10
2022-11-21T07:31:11.779Z,55.00
2022-11-21T07:33:40.523Z,52.90
2022-11-21T07:36:08.194Z,52.10
2022-11-21T07:38:35.463Z,54.70
2022-11-21T07:41:02.931Z,56.00
2022-11-21T07:43:30.220Z,54.40
2022-11-21T07:45:57.674Z,53.90
2022-11-21T07:48:24.663Z,51.50
2022-11-21T07:50:51.982Z,45.50
2022-11-21T07:53:19.163Z,38.10
2022-11-21T07:55:46.491Z,25.30
2022-11-21T07:58:16.167Z,22.20
2022-11-21T08:00:43.603Z,21.50
2022-11-21T08:03:12.265Z,22.40
2022-11-21T08:05:44.030Z,1.00
2022-11-21T08:08:16.588Z,1.00
2022-11-21T08:10:45.607Z,1.00
2022-11-21T08:13:13.768Z,1.00
2022-11-21T08:15:41.424Z,10.40
2022-11-21T08:18:21.700Z,19.30
2022-11-21T08:20:49.001Z,14.40
2022-11-21T08:23:16.090Z,4.70
2022-11-21T08:25:43.490Z,1.00
2022-11-21T08:28:11.539Z,1.00
2022-11-21T08:30:40.047Z,1.00
2022-11-21T08:33:07.539Z,1.00
2022-11-21T08:35:38.069Z,99.90
2022-11-21T08:38:05.772Z,99.90
2022-11-21T08:40:33.343Z,99.90
2022-11-21T08:43:06.227Z,99.90
2022-11-21T08:45:35.501Z,99.90
2022-11-21T08:48:03.725Z,99.90
2022-11-21T08:50:32.073Z,99.90
2022-11-21T08:53:01.401Z,99.90
2022-11-21T08:55:31.545Z,99.90
2022-11-21T08:57:59.001Z,99.90
2022-11-21T09:00:26.925Z,99.90
2022-11-21T09:02:53.861Z,99.90
2022-11-21T09:05:21.260Z,99.90
2022-11-21T09:07:48.783Z,99.90
2022-11-21T09:10:16.206Z,99.90
2022-11-21T09:12:43.420Z,99.90
2022-11-21T09:15:30.313Z,99.90
2022-11-21T09:18:03.983Z,99.90
2022-11-21T09:20:34.182Z,99.90
2022-11-21T09:23:27.660Z,99.90
2022-11-21T09:25:54.995Z,99.90
2022-11-21T09:28:21.961Z,99.90
2022-11-21T09:30:49.207Z,99.90
2022-11-21T09:33:19.283Z,99.90
2022-11-21T09:35:46.558Z,99.90
2022-11-21T09:38:13.548Z,99.90
2022-11-21T09:40:45.973Z,99.90
2022-11-21T09:43:38.279Z,99.90
2022-11-21T09:46:15.937Z,99.90
2022-11-21T09:48:42.847Z,99.90
2022-11-21T09:51:15.081Z,99.90
2022-11-21T09:53:50.642Z,99.90
2022-11-21T09:56:23.277Z,99.90
2022-11-21T09:59:05.882Z,99.90
2022-11-21T10:01:33.303Z,99.90
2022-11-21T10:04:03.638Z,99.90
2022-11-21T10:06:45.069Z,99.90
2022-11-21T10:09:30.785Z,99.90
2022-11-21T10:12:33.528Z,99.90
2022-11-21T10:15:15.675Z,99.90
2022-11-21T10:18:11.959Z,99.90
2022-11-21T10:20:42.012Z,99.90
2022-11-21T10:23:15.149Z,99.90
2022-11-21T10:25:58.329Z,99.90
2022-11-21T10:28:42.332Z,99.90
2022-11-21T10:31:11.672Z,99.90
2022-11-21T10:33:40.503Z,99.90
2022-11-21T10:36:30.655Z,99.90
2022-11-21T10:39:07.436Z,99.90
2022-11-21T10:41:44.992Z,99.90
2022-11-21T10:44:44.914Z,99.90
2022-11-21T10:47:28.458Z,99.90
2022-11-21T10:50:00.094Z,99.90
2022-11-21T10:52:31.222Z,99.90
2022-11-21T10:55:03.678Z,99.90
2022-11-21T10:57:59.858Z,99.90
2022-11-21T11:00:27.831Z,1.00
2022-11-21T11:03:05.837Z,1.00
2022-11-21T11:05:36.175Z,1.00
2022-11-21T11:08:14.530Z,1.00
2022-11-21T11:10:46.752Z,1.00
2022-11-21T11:13:50.643Z,1.00
2022-11-21T11:16:21.642Z,1.00
2022-11-21T11:18:58.926Z,1.00
2022-11-21T11:21:31.057Z,1.00
2022-11-21T11:24:21.868Z,1.00
2022-11-21T11:26:49.534Z,1.00
2022-11-21T11:29:30.301Z,1.00
2022-11-21T11:32:21.222Z,1.00
2022-11-21T11:35:05.246Z,1.00
2022-11-21T11:37:43.900Z,1.00
2022-11-21T11:40:25.992Z,1.00
2022-11-21T11:43:27.249Z,1.00
2022-11-21T11:46:23.269Z,1.00
2022-11-21T11:49:21.895Z,1.00
2022-11-21T11:51:52.968Z,2.00
2022-11-21T11:54:29.881Z,1.60
2022-11-21T11:56:59.152Z,10.10
2022-11-21T11:59:38.101Z,12.50
2022-11-21T12:02:23.249Z,6.60
2022-11-21T12:05:04.870Z,4.80
2022-11-21T12:11:01.201Z,7.90
2022-11-21T12:13:29.999Z,1.00
2022-11-21T12:16:08.680Z,8.80
2022-11-21T12:19:03.080Z,2.50
2022-11-21T12:21:30.526Z,6.50
2022-11-21T12:23:58.938Z,9.60
2022-11-21T12:26:38.152Z,18.60
2022-11-21T12:29:31.488Z,17.50
2022-11-21T12:32:21.361Z,1.00
2022-11-21T12:35:06.597Z,1.00
2022-11-21T12:37:59.159Z,15.50
2022-11-21T12:40:50.313Z,14.20
2022-11-21T12:43:57.968Z,15.50
2022-11-21T12:46:52.214Z,21.30
2022-11-21T12:50:08.750Z,39.40
2022-11-21T12:53:06.113Z,43.80
2022-11-21T12:55:40.599Z,45.60
2022-11-21T12:58:07.868Z,38.20
2022-11-21T13:01:23.260Z,44.40
2022-11-21T13:03:55.410Z,46.50
2022-11-21T13:06:26.255Z,42.30
2022-11-21T13:08:55.697Z,50.20
2022-11-21T13:12:01.496Z,45.90
2022-11-21T13:14:41.980Z,52.80
2022-11-21T13:17:12.096Z,55.10
2022-11-21T13:19:44.465Z,53.70
2022-11-21T13:22:36.573Z,58.00
2022-11-21T13:25:11.011Z,58.80
2022-11-21T13:27:47.157Z,54.70
2022-11-21T13:30:15.162Z,59.60
2022-11-21T13:32:47.961Z,62.60
2022-11-21T13:35:15.081Z,65.40
2022-11-21T13:38:03.860Z,68.40
2022-11-21T13:40:30.793Z,65.80
2022-11-21T13:45:59.348Z,76.30
2022-11-21T13:48:36.396Z,71.70
2022-11-21T13:51:47.395Z,72.20
2022-11-21T13:54:42.514Z,76.20
2022-11-21T13:57:16.201Z,78.20
2022-11-21T14:00:19.860Z,79.40
2022-11-21T14:02:53.329Z,81.60
2022-11-21T14:05:26.610Z,80.60
2022-11-21T14:07:53.976Z,77.80
2022-11-21T14:10:36.061Z,80.30
2022-11-21T14:13:04.096Z,77.40
2022-11-21T14:15:41.280Z,80.00
2022-11-21T14:18:21.067Z,82.60
2022-11-21T14:20:58.148Z,81.50
2022-11-21T14:23:27.690Z,77.60
2022-11-21T14:26:04.894Z,78.50
2022-11-21T14:28:35.384Z,79.20
2022-11-21T14:31:08.181Z,80.70
2022-11-21T14:33:42.674Z,77.90
2022-11-21T14:36:17.447Z,76.80
2022-11-21T14:38:57.505Z,79.50
2022-11-21T14:41:34.544Z,84.20
2022-11-21T14:44:05.598Z,82.20
2022-11-21T14:46:37.864Z,83.70
2022-11-21T14:49:18.996Z,79.40
2022-11-21T14:52:03.947Z,77.30
2022-11-21T14:54:34.858Z,76.50
2022-11-21T14:57:06.883Z,73.90
2022-11-21T14:59:40.797Z,73.10
2022-11-21T15:02:20.164Z,72.70
2022-11-21T15:04:49.770Z,74.10
2022-11-21T15:07:31.521Z,74.90
2022-11-21T15:10:30.341Z,78.50
2022-11-21T15:12:47.968Z,78.80
2022-11-21T15:15:26.967Z,76.60
2022-11-21T15:18:24.374Z,76.40
2022-11-21T15:20:54.217Z,77.10
2022-11-21T15:23:32.811Z,77.60
2022-11-21T15:26:01.715Z,76.50
2022-11-21T15:28:30.496Z,74.30
2022-11-21T15:31:17.361Z,72.60
2022-11-21T15:34:34.861Z,73.90
2022-11-21T15:37:03.923Z,77.30
2022-11-21T15:39:32.832Z,76.80
2022-11-21T15:42:33.974Z,76.00
2022-11-21T15:45:22.827Z,74.50
2022-11-21T15:47:49.866Z,74.00
2022-11-21T15:50:17.718Z,75.90
2022-11-21T15:52:50.042Z,77.10
2022-11-21T15:55:24.777Z,74.60
2022-11-21T15:57:53.685Z,72.40
2022-11-21T16:00:21.190Z,72.20
2022-11-21T16:02:48.136Z,73.60
2022-11-21T16:05:15.979Z,78.30
2022-11-21T16:07:43.049Z,72.50
2022-11-21T16:10:18.240Z,71.80
2022-11-21T16:12:49.217Z,71.10
2022-11-21T16:15:16.606Z,69.20
2022-11-21T16:17:45.644Z,70.10
2022-11-21T16:20:13.484Z,70.40
2022-11-21T16:22:46.925Z,66.90
2022-11-21T16:25:16.046Z,68.90
2022-11-21T16:27:43.037Z,71.00
2022-11-21T16:30:12.079Z,71.70
2022-11-21T16:32:39.337Z,76.50
2022-11-21T16:35:07.031Z,73.30
2022-11-21T16:37:34.208Z,74.00
2022-11-21T16:40:01.660Z,73.40
2022-11-21T16:42:28.810Z,76.00
2022-11-21T16:44:56.394Z,73.00
2022-11-21T16:47:23.417Z,71.60
2022-11-21T16:49:50.682Z,67.60
2022-11-21T16:52:18.294Z,70.50
2022-11-21T16:54:47.255Z,67.30
2022-11-21T16:57:14.370Z,66.10
2022-11-21T16:59:41.695Z,65.10
2022-11-21T17:02:11.970Z,66.30
2022-11-21T17:04:39.438Z,67.30
2022-11-21T17:07:06.494Z,66.90
2022-11-21T17:09:33.827Z,65.10
2022-11-21T17:12:00.869Z,65.80
2022-11-21T17:14:28.591Z,66.90
2022-11-21T17:16:55.970Z,68.50
2022-11-21T17:19:23.448Z,67.90
2022-11-21T17:21:50.399Z,66.70
2022-11-21T17:24:19.715Z,71.70
2022-11-21T17:26:46.803Z,69.40
2022-11-21T17:29:14.098Z,65.60
2022-11-21T17:31:43.866Z,66.10
2022-11-21T17:34:11.606Z,70.10
2022-11-21T17:36:38.699Z,67.80
2022-11-21T17:39:05.991Z,68.80
2022-11-21T17:41:33.109Z,64.60
2022-11-21T17:44:01.226Z,69.30
2022-11-21T17:46:28.486Z,70.60
2022-11-21T17:48:58.399Z,72.90
2022-11-21T17:51:33.337Z,79.40
2022-11-21T17:54:01.890Z,81.10
2022-11-21T17:56:31.561Z,85.60
2022-11-21T17:58:59.190Z,88.10
2022-11-21T18:01:26.650Z,90.70
2022-11-21T18:03:59.377Z,90.80
2022-11-21T18:06:29.110Z,91.30
2022-11-21T18:08:59.993Z,90.90
2022-11-21T18:11:39.174Z,90.80
2022-11-21T18:14:11.261Z,91.20
2022-11-21T18:16:39.926Z,91.20
2022-11-21T18:19:11.015Z,91.10
2022-11-21T18:21:38.369Z,91.80
2022-11-21T18:24:06.085Z,92.50
2022-11-21T18:26:36.583Z,92.80
2022-11-21T18:29:34.775Z,91.50
2022-11-21T18:31:53.420Z,92.20
2022-11-21T18:34:20.791Z,91.50
2022-11-21T18:36:48.933Z,91.20
2022-11-21T18:39:16.250Z,90.40
2022-11-21T18:41:43.714Z,89.60
2022-11-21T18:44:15.767Z,90.10
2022-11-21T18:46:47.020Z,90.10
2022-11-21T18:49:14.437Z,90.00
2022-11-21T18:51:41.716Z,90.20
2022-11-21T18:54:10.489Z,88.40
2022-11-21T18:56:39.304Z,86.40
2022-11-21T18:59:07.125Z,84.60
2022-11-21T19:01:36.264Z,82.80
2022-11-21T19:04:07.120Z,83.80
2022-11-21T19:06:34.755Z,83.20
2022-11-21T19:09:02.289Z,82.50
2022-11-21T19:11:30.009Z,79.60
2022-11-21T19:14:00.467Z,78.30
2022-11-21T19:16:31.093Z,78.80
2022-11-21T19:19:32.966Z,80.10
2022-11-21T19:21:47.157Z,81.60
2022-11-21T19:24:16.493Z,82.90
2022-11-21T19:26:43.723Z,83.60
2022-11-21T19:29:12.891Z,82.50
2022-11-21T19:31:46.021Z,81.40
2022-11-21T19:34:14.541Z,83.30
2022-11-21T19:36:41.706Z,83.10
2022-11-21T19:39:09.403Z,83.40
2022-11-21T19:41:36.578Z,85.90
2022-11-21T19:44:04.169Z,83.10
2022-11-21T19:46:36.896Z,79.10
2022-11-21T19:49:05.784Z,80.80
2022-11-21T19:51:42.645Z,83.00
2022-11-21T19:54:12.790Z,85.70
2022-11-21T19:56:40.384Z,83.10
2022-11-21T19:59:10.489Z,86.20
2022-11-21T20:01:39.101Z,83.60
2022-11-21T20:04:07.107Z,83.40
2022-11-21T20:06:41.413Z,82.80
2022-11-21T20:09:13.603Z,82.00
2022-11-21T20:11:42.673Z,80.70
2022-11-21T20:14:11.640Z,82.90
2022-11-21T20:16:46.324Z,84.40
2022-11-21T20:19:15.922Z,83.90
2022-11-21T20:21:45.724Z,85.50
2022-11-21T20:24:13.595Z,87.80
2022-11-21T20:26:41.285Z,87.60
2022-11-21T20:29:10.397Z,88.50
2022-11-21T20:31:37.633Z,88.40
2022-11-21T20:34:12.652Z,89.10
2022-11-21T20:36:40.407Z,88.00
2022-11-21T20:39:18.823Z,87.50
2022-11-21T20:41:47.202Z,86.00
2022-11-21T20:47:05.594Z,87.20
2022-11-21T20:49:33.794Z,86.70
2022-11-21T20:54:48.524Z,85.50
2022-11-21T20:57:15.840Z,84.50
2022-11-21T20:59:43.931Z,83.70
2022-11-21T21:02:14.861Z,83.30
2022-11-21T21:04:42.555Z,82.90
2022-11-21T21:07:09.905Z,83.10
2022-11-21T21:09:37.252Z,83.50
2022-11-21T21:12:05.633Z,85.30
2022-11-21T21:14:32.959Z,85.00
2022-11-21T21:16:59.921Z,84.50
2022-11-21T21:19:27.507Z,84.80
2022-11-21T21:21:54.691Z,83.40
2022-11-21T21:24:22.027Z,82.30
2022-11-21T21:26:49.640Z,81.80
2022-11-21T21:29:21.351Z,81.10
2022-11-21T21:31:52.756Z,82.60
2022-11-21T21:34:22.111Z,83.00
2022-11-21T21:36:49.856Z,84.10
2022-11-21T21:39:20.031Z,83.10
2022-11-21T21:41:49.370Z,83.10
2022-11-21T21:44:17.039Z,83.70
2022-11-21T21:46:44.338Z,83.00
2022-11-21T21:49:11.783Z,82.00
2022-11-21T21:51:40.043Z,82.40
2022-11-21T21:54:14.619Z,82.60
2022-11-21T21:56:41.619Z,83.80
2022-11-21T21:59:08.924Z,83.60
2022-11-21T22:01:35.997Z,84.80
2022-11-21T22:04:05.115Z,85.60
2022-11-21T22:06:35.529Z,85.00
2022-11-21T22:09:03.564Z,83.80
2022-11-21T22:11:32.841Z,84.40
2022-11-21T22:14:06.941Z,85.70
2022-11-21T22:16:34.281Z,86.20
2022-11-21T22:19:01.645Z,86.50
2022-11-21T22:21:32.800Z,87.30
2022-11-21T22:24:27.276Z,88.50
2022-11-21T22:26:54.851Z,90.80
2022-11-21T22:29:22.226Z,91.10
2022-11-21T22:31:49.228Z,91.00
2022-11-21T22:34:16.574Z,91.10
2022-11-21T22:36:44.779Z,91.20
2022-11-21T22:39:12.363Z,91.00
2022-11-21T22:41:42.497Z,91.20
2022-11-21T22:44:09.845Z,91.40
2022-11-21T22:46:36.792Z,91.20
2022-11-21T22:49:04.180Z,90.80
2022-11-21T22:51:31.180Z,90.80
2022-11-21T22:53:58.593Z,90.70
2022-11-21T22:56:27.085Z,90.90
2022-11-21T22:58:54.920Z,90.70
2022-11-21T23:01:24.801Z,90.40
2022-11-21T23:03:52.991Z,91.00
2022-11-21T23:10:24.918Z,93.40
2022-11-21T23:12:52.403Z,94.90
2022-11-21T23:15:19.589Z,95.10
2022-11-21T23:17:52.110Z,95.30
2022-11-21T23:20:19.620Z,95.90
2022-11-21T23:22:47.056Z,96.30
2022-11-21T23:25:14.724Z,96.40
2022-11-21T23:27:42.191Z,97.40
2022-11-21T23:30:09.896Z,98.00
2022-11-21T23:32:37.520Z,98.60
2022-11-21T23:35:05.042Z,98.00
2022-11-21T23:37:32.498Z,98.30
2022-11-21T23:39:59.792Z,98.80
2022-11-21T23:42:28.613Z,99.30
2022-11-21T23:44:55.854Z,99.20
2022-11-21T23:47:23.330Z,98.90
2022-11-21T23:49:50.474Z,99.70
2022-11-21T23:52:18.025Z,99.90
2022-11-21T23:54:45.231Z,99.90
2022-11-21T23:57:12.763Z,99.90
2022-11-21T23:59:39.784Z,99.90
